Snake Valley, Nevada Weather observations

Data are for 10 minute period ending at time listed.
 Day   Time   Solar   Ave.   Ave.  Ave.  Vector  Max.   Baro.   Total    
  of    of     Rad.   Air    Rel.  Wind   Wind   Wind  Press.  Precip.   
Year   Day            Temp.  Hum.  Speed  Dir.   Gust                    
2015   (PST)  Kw/m2    F      %     mph   deg.    mph    mb.     in.     
-------------------------------------------------------------------------
  30    5:50   0.00   35.9    95    2.1   306     4.5   843.1    0.00 
  30    6:00   0.00   35.9    95    1.6   344     4.2   843.1    0.01 
  30    6:10   0.00   35.9    95    2.4     8     4.1   843.0    0.00 
  30    6:20   0.00   35.9    95    2.7   359     5.3   842.9    0.01 
  30    6:30   0.00   35.9    95    3.4   350     5.4   842.9    0.00 
  30    6:40   0.00   36.0    95    2.8   349     4.7   842.8    0.00 
  30    6:50   0.00   36.0    95    3.0   357     5.7   842.7    0.01 
  30    7:00   0.00   36.0    95    3.9   353     5.8   842.7    0.00 
  30    7:10   0.00   36.0    95    3.5     4     6.1   842.7    0.00 
  30    7:20   0.01   36.0    95    3.6    14     6.5   842.6    0.01 
  30    7:30   0.01   36.1    95    4.3    27     7.8   842.5    0.00 
  30    7:40   0.02   36.2    95    4.5    14     6.7   842.6    0.01 
  30    7:50   0.02   36.4    95    4.8     9     7.0   842.7    0.00 
  30    8:00   0.02   36.5    95    5.2     7     9.1   842.6    0.00 
  30    8:10   0.02   36.6    94    3.7   344     6.1   842.5    0.01 
  30    8:20   0.02   36.8    94    3.2   332     8.4   842.4    0.00 
  30    8:30   0.03   36.9    94    3.6   344     6.0   842.4    0.01 
  30    8:40   0.04   37.0    94    5.3     9     9.6   842.4    0.00 
  30    8:50   0.06   37.1    93    6.8    15    12.2   842.3    0.00 
  30    9:00   0.06   37.3    93    6.2    12    12.4   842.3    0.00 
  30    9:10   0.04   37.3    91    7.1     8    13.7   842.4    0.01 
  30    9:20   0.04   37.3    91    4.3     2     8.3   842.3    0.00 
  30    9:30   0.04   37.5    91    1.8   336     3.7   842.4    0.01 
  30    9:40   0.04   37.5    90    1.1   218     4.0   842.4    0.00 
  30    9:50   0.04   37.6    90    2.6     3     7.1   842.4    0.01 
  30   10:00   0.04   37.6    90    3.7    52     6.6   842.4    0.01 
  30   10:10   0.04   37.3    90    4.9    26     7.8   842.4    0.02 
  30   10:20   0.05   37.3    91    5.4    28     8.5   842.4    0.01 
  30   10:30   0.06   37.1    91    8.8    20    13.2   842.3    0.02 
  30   10:40   0.07   36.9    91    7.1    19    11.2   842.2    0.02 
  30   10:50   0.07   37.1    92    5.7    17     9.1   842.0    0.01 
  30   11:00   0.10   37.1    92    4.3    24     6.9   841.8    0.01 
  30   11:10   0.12   37.4    92    6.1    34    11.0   841.7    0.01 
  30   11:20   0.10   37.3    92    6.6    31    12.5   841.6    0.01 
  30   11:30   0.08   37.2    91    7.6    19    12.8   841.6    0.01 
  30   11:40   0.06   37.1    92    7.3    24    11.8   841.5    0.00 
  30   11:50   0.08   36.9    92    8.6    26    13.2   841.3    0.01 
  30   12:00   0.10   37.1    92    8.6    22    13.3   841.1    0.00 
  30   12:10   0.06   37.1    92    8.1     7    11.2   841.0    0.00 
  30   12:20   0.08   37.2    92    8.0    15    11.7   840.7    0.01 
  30   12:30   0.07   37.2    92    6.0    16    10.3   840.5    0.00 
  30   12:40   0.09   37.2    92    7.3    20    12.4   840.4    0.01 
  30   12:50   0.10   37.2    91    6.5   359    11.0   840.2    0.01 
  30   13:00   0.10   37.2    92    6.3   352    10.4   840.1    0.01 
  30   13:10   0.10   37.4    92   10.3     5    14.4   840.0    0.00 
  30   13:20   0.09   37.1    92   11.9    16    18.5   839.8    0.01 
  30   13:30   0.07   37.0    92   10.9    16    14.2   839.7    0.01 
  30   13:40   0.08   36.9    93   10.9    18    15.9   839.5    0.00 
  30   13:50   0.06   36.8    93    9.8    16    13.0   839.5    0.01 
  30   14:00   0.08   36.9    93   10.7    20    14.5   839.4    0.00 
  30   14:10   0.07   37.0    93   10.4    20    14.5   839.4    0.00 
  30   14:20   0.09   37.1    93   10.0    16    15.8   839.3    0.00 
  30   14:30   0.09   37.3    93   11.2     7    15.3   839.1    0.01 
  30   14:40   0.07   37.3    92   11.4     2    17.6   839.1    0.00 
  30   14:50   0.06   37.1    92   11.5     0    15.0   839.0    0.00 
  30   15:00   0.05   37.0    93   10.0     0    13.9   838.9    0.01 
  30   15:10   0.04   37.1    93    8.4     7    12.9   838.9    0.00 
  30   15:20   0.03   37.1    93    7.5    14    11.9   839.0    0.00 
  30   15:30   0.02   37.0    93    7.7    19    13.0   839.0    0.00 
  30   15:40   0.02   36.9    93    8.2    11    12.9   838.8    0.00 
  30   15:50   0.02   36.9    93    7.2    12    10.4   838.8    0.00 
  30   16:00   0.02   36.8    93    9.0    18    14.1   838.7    0.01 
  30   16:10   0.02   36.9    93   11.1    16    18.3   838.6    0.00 
  30   16:20   0.02   37.0    92   13.6    13    19.1   838.5    0.00 
  30   16:30   0.01   37.0    92   12.7    14    17.9   838.6    0.01 
  30   16:40   0.01   37.0    92   12.8    19    18.0   838.7    0.00 
  30   16:50   0.00   37.0    92   11.7    15    16.3   838.8    0.01 
  30   17:00   0.00   37.0    91   13.1    12    18.9   838.8    0.01 
  30   17:10   0.00   36.9    91   12.7    12    18.0   838.9    0.01 
  30   17:20   0.00   36.8    91   12.1    10    18.5   839.0    0.00 
  30   17:30   0.00   36.8    92   10.7    10    15.5   839.0    0.01 
  30   17:40   0.00   36.7    92   10.4    13    14.4   839.0    0.00 
  30   17:50   0.00   36.7    92    9.8    15    14.4   838.9    0.01 
  30   18:00   0.00   36.7    92    8.4    14    13.1   838.9    0.00 
  30   18:10   0.00   36.8    92    9.7    12    14.0   838.8    0.01 
  30   18:20   0.00   36.7    92   11.2    13    16.6   838.8    0.00 
  30   18:30   0.00   36.4    92   11.7    15    15.9   838.8    0.00 
  30   18:40   0.00   36.1    92   11.9    13    18.1   838.8    0.01 
  30   18:50   0.00   35.8    92   13.1    15    18.0   838.8    0.00 
  30   19:00   0.00   35.7    93   14.7    19    19.5   838.9    0.00 
  30   19:10   0.00   35.6    93   13.3     9    19.0   838.8    0.00 
  30   19:20   0.00   35.6    93   12.2     9    17.8   838.8    0.00 
  30   19:30   0.00   35.6    93   10.7    15    15.2   839.0    0.00 
  30   19:40   0.00   35.6    93   10.8    17    16.7   839.0    0.00 
  30   19:50   0.00   35.6    93    9.8    17    14.9   839.1    0.00 
  30   20:00   0.00   35.7    93    9.3    21    13.5   839.1    0.00 
  30   20:10   0.00   35.7    94    9.4    20    12.9   839.1    0.00 
  30   20:20   0.00   35.7    94    9.6    17    14.2   839.1    0.00 
  30   20:30   0.00   35.6    94    9.0    23    12.3   839.1    0.01 
  30   20:40   0.00   35.6    94    9.6    21    14.7   839.1    0.00 
  30   20:50   0.00   35.5    94   10.8    20    15.3   839.0    0.01 
  30   21:00   0.00   35.4    94   11.6    19    16.1   839.0    0.00 
  30   21:10   0.00   35.4    94   12.0    18    17.5   838.8    0.00 
  30   21:20   0.00   35.4    94   12.7    18    17.6   838.8    0.01 
  30   21:30   0.00   35.5    94   11.8    22    17.2   838.8    0.00 
  30   21:40   0.00   35.5    93   11.4    27    16.2   839.0    0.00 
  30   21:50   0.00   35.4    94   10.5    25    14.5   839.0    0.00 
  30   22:00   0.00   35.4    93   10.7    16    15.1   838.8    0.01 
  30   22:10   0.00   35.4    93    9.9    14    15.6   839.0    0.00 
  30   22:20   0.00   35.3    94    9.4    18    14.7   838.9    0.00 
  30   22:30   0.00   35.3    94    9.4    18    14.3   838.8    0.00 
  30   22:40   0.00   35.2    94    8.8    18    12.3   838.8    0.00 
  30   22:50   0.00   35.4    94    8.8    16    13.0   838.8    0.00 
  30   23:00   0.00   35.6    94    9.2     9    13.3   838.8    0.00 
  30   23:10   0.00   35.6    93    7.8    10    10.7   838.8    0.00 
  30   23:20   0.00   35.6    93    6.4    18     9.1   838.8    0.00 
  30   23:30   0.00   35.5    94    7.2    23     9.8   838.7    0.00 
  30   23:40   0.00   35.5    94    5.3    17     7.6   838.8    0.00 
  30   23:50   0.00   35.5    94    3.8   355     6.3   838.7    0.00 
  31    0:00   0.00   35.5    94    3.0     8     4.1   838.6    0.00 
  31    0:10   0.00   35.5    94    1.7    18     2.9   838.6    0.00 
  31    0:20   0.00   35.5    94    1.3   344     2.0   838.6    0.00 
  31    0:30   0.00   35.4    94    0.1   268     0.8   838.6    0.00 
  31    0:40   0.00   35.4    94    1.5   233     2.7   838.5    0.00 
  31    0:50   0.00   35.5    94    1.9   274     3.3   838.5    0.00 
  31    1:00   0.00   35.5    94    2.2   277     3.1   838.5    0.00 
  31    1:10   0.00   35.5    94    2.2   224     3.4   838.5    0.01 
  31    1:20   0.00   35.4    94    2.2   198     3.0   838.5    0.00 
  31    1:30   0.00   35.3    94    2.3   194     3.2   838.5    0.00 
  31    1:40   0.00   35.1    94    2.5   215     3.9   838.5    0.01 
  31    1:50   0.00   35.1    95    0.6   239     1.7   838.5    0.00 
  31    2:00   0.00   35.0    95    1.5   228     2.2   838.5    0.01 
  31    2:10   0.00   35.0    95    1.3   226     2.3   838.5    0.00 
  31    2:20   0.00   35.0    95    0.1   334     1.3   838.5    0.00 
  31    2:30   0.00   35.1    95    2.2   348     2.9   838.5    0.00 
  31    2:40   0.00   35.0    95    2.8   311     3.7   838.4    0.01 
  31    2:50   0.00   35.0    95    2.1   312     3.1   838.5    0.00 
  31    3:00   0.00   34.9    95    2.5   328     3.1   838.5    0.00 
  31    3:10   0.00   34.9    95    1.9   330     3.7   838.5    0.01 
  31    3:20   0.00   34.9    95    1.6   348     3.7   838.5    0.00 
  31    3:30   0.00   35.0    95    0.7    28     2.6   838.7    0.00 
  31    3:40   0.00   34.8    95    2.2     2     4.1   838.8    0.01 
  31    3:50   0.00   34.2    95    4.1   345     6.6   838.8    0.01 
  31    4:00   0.00   33.8    95    5.1   346     8.5   838.8    0.01 
  31    4:10   0.00   33.6    95    3.0   340     5.0   838.9    0.01 
  31    4:20   0.00   33.2    95    2.5   337     4.4   838.9    0.00 
  31    4:30   0.00   33.0    95    3.0     2     5.8   838.9    0.00 
  31    4:40   0.00   32.9    96    2.3     7     5.9   838.9    0.01 
  31    4:50   0.00   32.9    96    3.3    18     5.3   839.0    0.00 
  31    5:00   0.00   33.0    96    1.9     4     3.8   839.1    0.01 
  31    5:10   0.00   33.1    96    1.3   328     2.4   839.1    0.00 
  31    5:20   0.00   33.1    96    1.4   275     2.3   839.3    0.00 
  31    5:30   0.00   32.8    96    2.0   265     2.8   839.4    0.00 
  31    5:40   0.00   32.8    96    1.7   256     2.6   839.5    0.00 

Return to Snake Valley graphs page.


Western Regional Climate Center,wrcc@dri.edu